Time;durP1;ratioP1;P1;durP2;ratioP2;P2;SDS_P1;SDS_P2;PMS_P1;PMS_P2;Temp;Humidity;BMP_temperature;BMP_pressure;BME280_temperature;BME280_humidity;BME280_pressure;Samples;Min_cycle;Max_cycle;Signal;HPM_P1;HPM_P2
2021/04/23 00:01:59;;;;;;;11.80;7.50;;;4.60;89.50;;;;;;4934694;29;20206;-83
2021/04/23 00:04:27;;;;;;;12.33;7.47;;;4.60;89.80;;;;;;4942972;28;20235;-83
2021/04/23 00:06:58;;;;;;;11.50;7.30;;;4.50;89.80;;;;;;4922651;28;20202;-83
2021/04/23 00:09:32;;;;;;;11.57;7.43;;;4.50;89.90;;;;;;4944263;29;20188;-81
2021/04/23 00:12:04;;;;;;;13.20;8.00;;;4.50;89.80;;;;;;4944334;28;20227;-82
2021/04/23 00:14:35;;;;;;;11.53;7.80;;;4.50;89.80;;;;;;4949155;28;20206;-83
2021/04/23 00:17:03;;;;;;;11.50;7.63;;;4.40;90.00;;;;;;4938089;29;20199;-83
2021/04/23 00:19:31;;;;;;;13.53;7.57;;;4.40;90.00;;;;;;4943005;28;20207;-81
2021/04/23 00:21:59;;;;;;;14.23;7.87;;;4.40;90.20;;;;;;4942424;28;20562;-83
2021/04/23 00:24:32;;;;;;;13.67;7.73;;;4.30;90.30;;;;;;5067824;23;20261;-82
2021/04/23 00:27:01;;;;;;;13.37;8.40;;;4.30;90.40;;;;;;4983970;28;20194;-82
2021/04/23 00:29:29;;;;;;;11.77;7.17;;;4.30;90.20;;;;;;4985845;28;20209;-84
2021/04/23 00:34:43;;;;;;;14.97;7.80;;;4.30;90.70;;;;;;4984170;28;20173;-84
2021/04/23 00:37:11;;;;;;;13.90;8.17;;;4.20;90.70;;;;;;4980225;28;20450;-84
2021/04/23 00:39:40;;;;;;;12.27;8.40;;;4.30;90.70;;;;;;4987360;28;20216;-83
2021/04/23 00:42:08;;;;;;;12.97;8.17;;;4.30;90.40;;;;;;4982812;28;20512;-83
2021/04/23 00:44:36;;;;;;;14.07;8.20;;;4.40;90.40;;;;;;4980893;28;20424;-82
2021/04/23 00:47:05;;;;;;;14.47;8.83;;;4.30;90.30;;;;;;4983745;28;20225;-80
2021/04/23 00:49:33;;;;;;;13.80;8.50;;;4.30;90.40;;;;;;4966448;28;20215;-83
2021/04/23 00:52:02;;;;;;;14.03;8.90;;;4.20;90.50;;;;;;4982724;28;20283;-82
2021/04/23 00:54:30;;;;;;;12.57;9.27;;;4.20;90.70;;;;;;4983965;28;20193;-81
2021/04/23 00:57:00;;;;;;;14.00;8.80;;;4.20;90.70;;;;;;4975060;28;20220;-84
2021/04/23 00:59:28;;;;;;;16.23;8.70;;;4.20;90.70;;;;;;4970601;28;20208;-82
2021/04/23 01:01:59;;;;;;;13.63;9.03;;;4.10;90.80;;;;;;4956406;28;20212;-83
2021/04/23 01:04:29;;;;;;;12.37;7.67;;;4.30;90.70;;;;;;4980253;28;20205;-81
2021/04/23 01:07:00;;;;;;;11.37;7.70;;;4.20;90.30;;;;;;4965314;28;20239;-81
2021/04/23 01:09:30;;;;;;;12.80;8.17;;;4.30;90.00;;;;;;4960105;28;20225;-82
2021/04/23 01:12:01;;;;;;;13.87;8.30;;;4.30;89.60;;;;;;4961943;28;20229;-82
2021/04/23 01:14:29;;;;;;;16.87;8.53;;;4.30;89.50;;;;;;4971364;28;20196;-82
2021/04/23 01:16:57;;;;;;;17.50;8.57;;;4.30;89.80;;;;;;4974654;28;20198;-83
2021/04/23 01:19:27;;;;;;;12.43;8.50;;;4.30;89.50;;;;;;4958899;28;20757;-83
2021/04/23 01:21:57;;;;;;;11.63;8.50;;;4.30;89.50;;;;;;4964970;28;20205;-82
2021/04/23 01:24:25;;;;;;;14.10;9.30;;;4.30;89.20;;;;;;4962479;28;20215;-83
2021/04/23 01:26:55;;;;;;;16.07;8.87;;;4.40;88.80;;;;;;4962161;28;20216;-82
2021/04/23 01:29:24;;;;;;;16.63;9.60;;;4.40;88.90;;;;;;4963868;28;20204;-80
2021/04/23 01:31:55;;;;;;;16.17;9.37;;;4.40;89.10;;;;;;4958263;28;20226;-82
2021/04/23 01:34:25;;;;;;;17.60;10.23;;;4.30;89.00;;;;;;4959753;28;20237;-82
2021/04/23 01:36:54;;;;;;;14.50;9.47;;;4.30;88.90;;;;;;4956644;28;20443;-83
2021/04/23 01:39:25;;;;;;;16.20;9.73;;;4.30;88.90;;;;;;4965361;28;20450;-80
2021/04/23 01:41:55;;;;;;;13.50;8.57;;;4.30;89.20;;;;;;4962286;28;20613;-82
2021/04/23 01:44:23;;;;;;;13.87;8.50;;;4.20;89.30;;;;;;4955595;28;20732;-83
2021/04/23 01:46:52;;;;;;;15.80;8.83;;;4.20;89.10;;;;;;4960404;28;20215;-82
2021/04/23 01:49:22;;;;;;;15.67;9.27;;;4.20;88.90;;;;;;4958796;28;20547;-82
2021/04/23 01:51:52;;;;;;;17.80;9.07;;;4.10;89.10;;;;;;4967042;28;20226;-84
2021/04/23 01:54:22;;;;;;;13.50;8.93;;;4.10;89.20;;;;;;4963671;28;20209;-81
2021/04/23 01:56:51;;;;;;;14.10;8.60;;;4.00;89.30;;;;;;4974357;28;20204;-82
2021/04/23 01:59:20;;;;;;;13.93;8.83;;;4.00;89.30;;;;;;4956542;28;20207;-82
2021/04/23 02:01:48;;;;;;;13.60;8.47;;;4.00;89.50;;;;;;4959820;28;20208;-82
2021/04/23 02:04:18;;;;;;;12.03;8.57;;;3.90;89.80;;;;;;4951771;28;20651;-82
2021/04/23 02:06:48;;;;;;;16.17;8.47;;;3.90;90.00;;;;;;4941517;28;20641;-82
2021/04/23 02:09:17;;;;;;;14.50;8.03;;;3.90;89.40;;;;;;4953865;28;20205;-83
2021/04/23 02:11:47;;;;;;;14.60;8.50;;;3.80;89.80;;;;;;4958620;28;20233;-83
2021/04/23 02:14:16;;;;;;;15.37;8.27;;;3.70;90.00;;;;;;4962168;28;20198;-82
2021/04/23 02:16:44;;;;;;;17.63;8.07;;;3.70;90.20;;;;;;4963886;28;20298;-83
2021/04/23 02:19:14;;;;;;;12.87;8.37;;;3.80;90.30;;;;;;4955059;28;20744;-83
2021/04/23 02:21:42;;;;;;;16.27;9.00;;;3.50;90.50;;;;;;4959794;28;20204;-83
2021/04/23 02:24:11;;;;;;;12.17;8.10;;;3.40;90.80;;;;;;4957021;28;20291;-83
2021/04/23 02:26:40;;;;;;;13.13;7.70;;;3.20;91.20;;;;;;4962434;28;20247;-82
2021/04/23 02:29:09;;;;;;;13.70;8.10;;;3.20;91.60;;;;;;4954831;28;21280;-84
2021/04/23 02:31:39;;;;;;;15.50;8.47;;;3.20;92.10;;;;;;4957466;28;20231;-82
2021/04/23 02:34:11;;;;;;;13.57;7.80;;;3.20;92.10;;;;;;4970570;28;20467;-82
2021/04/23 02:36:40;;;;;;;15.00;7.90;;;3.20;92.20;;;;;;4973247;28;20361;-82
2021/04/23 02:39:10;;;;;;;13.37;8.10;;;3.20;92.30;;;;;;4957760;28;20205;-83
2021/04/23 02:41:38;;;;;;;13.67;8.23;;;3.20;92.30;;;;;;4967868;28;20212;-82
2021/04/23 02:44:06;;;;;;;14.30;8.07;;;3.20;92.30;;;;;;4959937;28;20227;-83
2021/04/23 02:46:36;;;;;;;15.80;7.70;;;3.20;92.30;;;;;;4969892;28;20205;-83
2021/04/23 02:49:04;;;;;;;15.73;7.73;;;3.20;92.00;;;;;;4965510;28;20239;-83
2021/04/23 02:51:36;;;;;;;14.17;8.37;;;3.20;91.50;;;;;;4977619;28;20620;-82
2021/04/23 02:54:05;;;;;;;9.70;7.50;;;3.20;91.30;;;;;;4970279;28;20631;-83
2021/04/23 02:56:34;;;;;;;10.53;7.20;;;3.10;91.40;;;;;;4955535;28;21053;-82
2021/04/23 02:59:04;;;;;;;10.43;7.50;;;3.10;91.70;;;;;;4953602;28;20428;-83
2021/04/23 03:01:40;;;;;;;13.20;7.10;;;3.20;91.40;;;;;;4939848;28;20217;-83
2021/04/23 03:04:08;;;;;;;11.13;7.47;;;3.20;91.20;;;;;;4959008;28;20612;-83
2021/04/23 03:06:36;;;;;;;12.60;7.23;;;3.20;90.80;;;;;;4974672;28;20189;-82
2021/04/23 03:09:06;;;;;;;10.60;7.50;;;3.20;90.90;;;;;;4953930;28;20216;-81
2021/04/23 03:11:36;;;;;;;11.60;7.13;;;3.10;90.90;;;;;;4956146;28;20391;-82
2021/04/23 03:14:04;;;;;;;12.80;7.80;;;3.10;91.00;;;;;;4956352;28;20213;-81
2021/04/23 03:16:32;;;;;;;12.43;7.20;;;3.10;91.10;;;;;;4938110;28;20445;-83
2021/04/23 03:19:01;;;;;;;13.37;8.07;;;3.00;90.90;;;;;;4953688;28;20197;-83
2021/04/23 03:21:30;;;;;;;15.93;7.80;;;3.10;90.90;;;;;;4961328;28;20691;-83
2021/04/23 03:23:57;;;;;;;12.10;7.20;;;3.10;90.80;;;;;;4968082;28;20205;-83
2021/04/23 03:26:26;;;;;;;12.77;6.90;;;3.10;90.90;;;;;;4975216;28;20473;-82
2021/04/23 03:28:54;;;;;;;11.53;6.73;;;3.10;90.80;;;;;;4977668;28;20188;-82
2021/04/23 03:31:22;;;;;;;16.50;8.23;;;3.10;90.70;;;;;;4966740;28;20232;-83
2021/04/23 03:33:50;;;;;;;12.67;6.80;;;3.10;90.50;;;;;;4952713;28;20799;-82
2021/04/23 03:36:19;;;;;;;11.47;6.93;;;3.00;90.40;;;;;;4955660;28;20208;-81
2021/04/23 03:38:50;;;;;;;11.20;7.00;;;3.00;90.40;;;;;;4948698;28;20201;-82
2021/04/23 03:41:21;;;;;;;12.83;7.53;;;3.00;90.50;;;;;;4953255;28;20212;-83
2021/04/23 03:43:49;;;;;;;12.47;7.40;;;3.00;90.60;;;;;;4954903;28;20203;-82
2021/04/23 03:46:17;;;;;;;10.10;6.87;;;3.10;90.40;;;;;;4951422;28;20698;-82
2021/04/23 03:48:45;;;;;;;10.33;7.17;;;3.00;90.30;;;;;;4953833;28;21029;-83
2021/04/23 03:51:15;;;;;;;14.23;7.50;;;3.10;90.30;;;;;;4950642;28;20260;-83
2021/04/23 03:53:45;;;;;;;12.03;6.77;;;3.00;90.20;;;;;;4954297;28;20240;-82
2021/04/23 03:56:14;;;;;;;10.17;6.77;;;3.20;90.10;;;;;;4966256;28;20200;-82
2021/04/23 03:58:42;;;;;;;12.47;6.90;;;3.30;89.00;;;;;;4959706;28;20951;-82
2021/04/23 04:01:14;;;;;;;11.10;6.10;;;3.40;88.40;;;;;;4957442;28;20228;-80
2021/04/23 04:03:42;;;;;;;11.13;6.07;;;3.40;88.20;;;;;;4949794;28;20279;-83
2021/04/23 04:06:10;;;;;;;9.73;6.37;;;3.50;87.90;;;;;;4956685;28;20671;-82
2021/04/23 04:08:38;;;;;;;8.20;5.97;;;3.60;87.60;;;;;;4948067;28;20205;-82
2021/04/23 04:11:09;;;;;;;10.93;5.87;;;3.70;86.80;;;;;;4961920;28;20211;-81
2021/04/23 04:13:37;;;;;;;13.03;5.80;;;3.80;86.10;;;;;;4963461;28;20228;-83
2021/04/23 04:16:05;;;;;;;11.00;5.80;;;3.90;85.90;;;;;;4966341;28;20213;-84
2021/04/23 04:18:33;;;;;;;9.43;6.10;;;3.90;85.30;;;;;;4962638;28;20298;-81
2021/04/23 04:21:01;;;;;;;11.77;6.10;;;4.00;84.90;;;;;;4950063;28;20228;-80
2021/04/23 04:23:29;;;;;;;9.47;5.90;;;4.10;85.00;;;;;;4952672;28;20790;-83
2021/04/23 04:25:59;;;;;;;7.13;5.80;;;4.10;84.70;;;;;;4955844;28;20213;-81
2021/04/23 04:28:30;;;;;;;9.57;6.17;;;4.10;84.60;;;;;;4957807;28;20602;-83
2021/04/23 04:30:59;;;;;;;13.23;6.23;;;4.10;84.50;;;;;;4960578;28;20218;-83
2021/04/23 04:33:47;;;;;;;11.40;5.90;;;4.20;84.40;;;;;;4953446;28;20313;-83
2021/04/23 04:36:15;;;;;;;11.50;5.50;;;4.30;84.60;;;;;;4966253;28;20699;-82
2021/04/23 04:38:47;;;;;;;9.97;5.57;;;4.30;84.30;;;;;;4960573;28;20219;-83
2021/04/23 04:41:16;;;;;;;10.20;5.53;;;4.30;84.10;;;;;;4961142;28;20206;-80
2021/04/23 04:43:45;;;;;;;9.13;5.40;;;4.40;83.90;;;;;;4953706;28;20210;-82
2021/04/23 04:46:13;;;;;;;11.87;5.97;;;4.50;83.80;;;;;;4953478;28;20600;-82
2021/04/23 04:48:40;;;;;;;10.93;6.27;;;4.60;83.70;;;;;;4945489;28;20198;-82
2021/04/23 04:51:09;;;;;;;10.60;6.07;;;4.60;84.00;;;;;;4949742;28;20460;-82
2021/04/23 04:53:37;;;;;;;11.93;5.87;;;4.70;83.40;;;;;;4958560;28;20231;-82
2021/04/23 04:56:05;;;;;;;9.30;5.33;;;4.80;83.50;;;;;;4955551;28;20567;-82
2021/04/23 04:58:36;;;;;;;11.57;5.73;;;4.90;83.40;;;;;;4949944;28;20208;-81
2021/04/23 05:01:07;;;;;;;13.97;5.50;;;5.00;83.30;;;;;;4956062;28;20212;-82
2021/04/23 05:03:36;;;;;;;10.37;5.67;;;5.20;83.10;;;;;;4942121;28;20216;-83
2021/04/23 05:06:05;;;;;;;12.57;6.20;;;5.40;82.90;;;;;;4953480;28;20216;-83
2021/04/23 05:08:32;;;;;;;11.00;5.90;;;5.60;82.80;;;;;;4952259;28;20201;-82
2021/04/23 05:11:00;;;;;;;11.50;6.10;;;5.70;82.60;;;;;;4962727;28;20762;-82
2021/04/23 05:13:28;;;;;;;8.17;5.00;;;5.70;81.70;;;;;;4970153;28;20221;-82
2021/04/23 05:15:55;;;;;;;8.87;5.97;;;5.70;81.60;;;;;;4975135;28;20644;-82
2021/04/23 05:18:24;;;;;;;13.03;5.63;;;5.70;81.90;;;;;;4963108;28;20209;-81
2021/04/23 05:20:52;;;;;;;8.77;5.70;;;5.70;81.80;;;;;;4956240;28;20678;-83
2021/04/23 05:23:19;;;;;;;10.97;5.67;;;5.70;81.80;;;;;;4954756;28;20983;-83
2021/04/23 05:25:47;;;;;;;13.53;5.90;;;5.70;82.00;;;;;;4967038;28;20192;-82
2021/04/23 05:28:15;;;;;;;11.47;6.50;;;5.80;82.00;;;;;;4956116;28;20223;-81
2021/04/23 05:30:42;;;;;;;9.90;5.87;;;5.80;81.80;;;;;;4953973;28;20212;-82
2021/04/23 05:33:12;;;;;;;9.77;5.47;;;5.80;82.30;;;;;;4960380;28;20228;-80
2021/04/23 05:35:41;;;;;;;9.93;5.43;;;5.80;81.90;;;;;;4952143;28;20204;-83
2021/04/23 05:38:11;;;;;;;9.93;5.80;;;5.90;82.00;;;;;;4957654;28;20221;-83
2021/04/23 05:40:43;;;;;;;9.93;5.70;;;6.00;81.80;;;;;;4953135;28;20651;-83
2021/04/23 05:43:12;;;;;;;9.63;5.23;;;6.10;81.70;;;;;;4957761;28;20209;-80
2021/04/23 05:45:42;;;;;;;8.77;5.37;;;5.90;81.30;;;;;;4951319;28;20213;-80
2021/04/23 05:48:12;;;;;;;8.93;5.03;;;6.20;81.50;;;;;;4956135;28;20216;-80
2021/04/23 05:50:41;;;;;;;10.03;5.13;;;6.30;81.30;;;;;;4950436;28;20839;-81
2021/04/23 05:53:09;;;;;;;11.73;5.70;;;6.40;81.20;;;;;;4957700;28;20375;-83
2021/04/23 05:55:37;;;;;;;7.67;5.03;;;6.60;81.00;;;;;;4956718;28;20491;-81
2021/04/23 05:58:06;;;;;;;7.50;4.90;;;6.80;80.80;;;;;;4953632;28;20520;-82
2021/04/23 06:00:36;;;;;;;11.00;5.37;;;6.70;80.40;;;;;;4958336;28;20508;-84
2021/04/23 06:03:06;;;;;;;9.80;5.37;;;6.70;80.40;;;;;;4963875;28;20222;-82
2021/04/23 06:05:35;;;;;;;8.20;5.17;;;6.90;80.60;;;;;;4974327;28;20221;-83
2021/04/23 06:08:06;;;;;;;12.37;5.60;;;7.00;80.50;;;;;;4958881;28;20216;-82
2021/04/23 06:10:40;;;;;;;9.27;5.73;;;7.10;80.30;;;;;;4947763;28;20657;-80
2021/04/23 06:13:08;;;;;;;8.07;5.30;;;7.20;80.00;;;;;;4948442;28;20315;-82
2021/04/23 06:15:37;;;;;;;8.87;4.90;;;7.30;80.00;;;;;;4943213;28;20261;-81
2021/04/23 06:18:06;;;;;;;10.87;5.40;;;7.50;80.20;;;;;;4939721;28;20220;-81
2021/04/23 06:20:34;;;;;;;8.53;5.63;;;7.70;79.90;;;;;;4927142;28;20246;-82
2021/04/23 06:23:04;;;;;;;13.87;6.87;;;7.70;79.60;;;;;;4938242;28;20318;-82
2021/04/23 06:25:34;;;;;;;9.47;5.10;;;7.90;79.60;;;;;;4928502;28;20692;-82
2021/04/23 06:28:07;;;;;;;9.53;5.53;;;8.00;79.20;;;;;;4942457;28;20671;-84
2021/04/23 06:30:37;;;;;;;10.37;5.60;;;8.00;78.90;;;;;;4937754;28;20220;-81
2021/04/23 06:33:15;;;;;;;7.20;5.23;;;7.90;79.40;;;;;;4958724;28;20227;-82
2021/04/23 06:35:45;;;;;;;9.13;5.43;;;7.90;78.90;;;;;;4960222;28;20651;-83
2021/04/23 06:38:14;;;;;;;10.33;5.70;;;7.90;79.50;;;;;;4944453;28;21053;-83
2021/04/23 06:40:42;;;;;;;9.30;5.33;;;8.00;79.10;;;;;;4944154;28;20502;-83
2021/04/23 06:43:11;;;;;;;11.70;5.13;;;8.00;78.60;;;;;;4947583;28;20338;-83
2021/04/23 06:45:39;;;;;;;9.00;4.73;;;8.10;78.90;;;;;;4953113;28;20220;-82
2021/04/23 06:48:10;;;;;;;7.83;5.50;;;8.20;78.10;;;;;;4944366;28;20463;-82
2021/04/23 06:50:39;;;;;;;10.00;5.80;;;8.20;78.10;;;;;;4947072;28;20207;-82
2021/04/23 06:53:06;;;;;;;7.90;4.33;;;8.30;78.10;;;;;;4947857;28;20227;-83
2021/04/23 06:55:36;;;;;;;6.70;4.77;;;8.40;77.50;;;;;;4927235;28;20220;-83
2021/04/23 06:58:04;;;;;;;10.83;4.80;;;8.40;77.60;;;;;;4926223;28;20223;-84
2021/04/23 07:00:35;;;;;;;14.67;5.60;;;8.60;77.70;;;;;;4947930;28;20663;-83
2021/04/23 07:03:04;;;;;;;10.07;5.03;;;8.60;77.50;;;;;;4923741;28;20443;-82
2021/04/23 07:05:39;;;;;;;8.70;4.03;;;8.30;76.80;;;;;;4959900;28;20212;-83
2021/04/23 07:08:13;;;;;;;8.33;5.03;;;8.20;77.30;;;;;;4946229;28;20208;-80
2021/04/23 07:10:43;;;;;;;9.23;5.13;;;8.40;77.10;;;;;;4952122;28;20330;-81
2021/04/23 07:13:13;;;;;;;9.03;4.57;;;8.60;77.50;;;;;;4952772;28;20366;-82
2021/04/23 07:15:41;;;;;;;6.70;4.87;;;8.80;76.80;;;;;;4952528;28;20567;-84
2021/04/23 07:18:09;;;;;;;9.90;5.00;;;8.80;76.60;;;;;;4942365;28;20209;-83
2021/04/23 07:20:42;;;;;;;13.30;5.77;;;8.80;77.00;;;;;;4959449;28;20330;-82
2021/04/23 07:23:11;;;;;;;10.10;5.17;;;8.80;76.40;;;;;;4962706;28;20201;-81
2021/04/23 07:25:39;;;;;;;7.83;5.30;;;8.80;76.50;;;;;;4964932;28;20208;-82
2021/04/23 07:28:09;;;;;;;8.90;4.13;;;8.70;76.10;;;;;;4962686;28;20204;-82
2021/04/23 07:30:38;;;;;;;8.23;4.60;;;8.70;76.30;;;;;;4950797;28;20216;-82
2021/04/23 07:33:11;;;;;;;9.47;4.77;;;8.90;76.50;;;;;;4955802;28;20305;-82
2021/04/23 07:35:41;;;;;;;8.23;5.03;;;9.20;76.60;;;;;;4952300;28;20208;-84
2021/04/23 07:38:09;;;;;;;8.07;5.23;;;9.30;76.60;;;;;;4958589;28;20276;-82
2021/04/23 07:40:37;;;;;;;7.73;4.53;;;9.50;75.60;;;;;;4957595;28;20507;-85
2021/04/23 07:43:05;;;;;;;9.60;4.87;;;9.50;75.20;;;;;;4964263;28;20334;-83
2021/04/23 07:45:54;;;;;;;8.97;5.20;;;9.60;74.60;;;;;;4957083;28;20663;-83
2021/04/23 07:48:22;;;;;;;9.37;4.47;;;9.30;74.90;;;;;;4949719;28;20221;-82
2021/04/23 07:54:53;;;;;;;6.07;4.57;;;8.90;74.60;;;;;;4947017;28;20207;-83
2021/04/23 07:57:21;;;;;;;9.93;4.33;;;8.90;75.40;;;;;;4926070;28;20300;-81
2021/04/23 07:59:49;;;;;;;12.13;4.43;;;8.90;74.80;;;;;;4953048;28;20240;-84
2021/04/23 08:02:18;;;;;;;7.17;4.17;;;9.00;74.40;;;;;;4938637;28;20209;-82
2021/04/23 08:04:46;;;;;;;7.27;4.60;;;9.10;74.80;;;;;;4947404;28;20364;-81
2021/04/23 08:07:16;;;;;;;7.67;4.20;;;9.10;75.10;;;;;;4943016;28;20212;-82
2021/04/23 08:09:49;;;;;;;5.80;4.10;;;9.10;74.20;;;;;;4945509;28;20483;-82
2021/04/23 08:12:21;;;;;;;5.37;3.27;;;9.00;74.10;;;;;;4956369;28;20221;-83
2021/04/23 08:14:49;;;;;;;7.50;4.10;;;9.00;73.40;;;;;;4953537;28;20467;-82
2021/04/23 08:17:21;;;;;;;5.53;3.83;;;9.20;74.30;;;;;;4928980;28;20204;-83
2021/04/23 08:19:50;;;;;;;7.73;3.60;;;9.40;72.60;;;;;;4946877;28;20300;-83
2021/04/23 08:22:22;;;;;;;5.47;3.47;;;9.40;71.30;;;;;;4960072;28;20211;-84
2021/04/23 08:24:50;;;;;;;8.00;4.23;;;9.20;71.60;;;;;;4957802;28;20677;-81
2021/04/23 08:27:18;;;;;;;8.43;3.90;;;9.00;72.80;;;;;;4958803;28;20245;-83
2021/04/23 08:29:53;;;;;;;8.87;4.10;;;8.90;72.80;;;;;;4954156;28;20459;-81
2021/04/23 08:32:22;;;;;;;5.10;3.87;;;9.00;73.20;;;;;;4959946;28;20217;-81
2021/04/23 08:34:50;;;;;;;5.93;3.70;;;9.30;73.50;;;;;;4939161;28;20234;-82
2021/04/23 08:37:19;;;;;;;6.43;4.03;;;9.50;72.30;;;;;;4958487;28;20208;-81
2021/04/23 08:39:47;;;;;;;5.27;3.03;;;9.70;71.60;;;;;;4957483;28;22126;-83
2021/04/23 08:42:15;;;;;;;5.80;3.40;;;9.60;71.00;;;;;;4962041;28;20249;-83
2021/04/23 08:44:43;;;;;;;6.90;3.30;;;9.70;71.00;;;;;;4958206;28;20213;-83
2021/04/23 08:47:17;;;;;;;5.13;3.03;;;9.60;69.90;;;;;;4958877;28;20220;-84
2021/04/23 08:49:45;;;;;;;8.10;3.40;;;9.40;69.70;;;;;;4961072;28;20341;-82
2021/04/23 08:52:18;;;;;;;7.97;3.87;;;9.10;69.90;;;;;;4973262;28;20208;-83
2021/04/23 08:57:43;;;;;;;5.03;3.50;;;9.30;71.30;;;;;;4977755;28;20360;-80
2021/04/23 09:00:13;;;;;;;4.87;3.67;;;9.70;71.50;;;;;;4971238;28;20430;-82
2021/04/23 09:02:40;;;;;;;7.23;3.30;;;10.00;69.30;;;;;;4977347;28;20224;-82
2021/04/23 09:05:13;;;;;;;9.67;3.07;;;10.30;68.60;;;;;;4969554;28;21160;-82
2021/04/23 09:08:03;;;;;;;5.73;3.60;;;10.60;68.50;;;;;;4979000;28;20197;-82
2021/04/23 09:10:32;;;;;;;6.03;3.37;;;11.00;68.20;;;;;;4979733;28;20211;-82
2021/04/23 09:13:11;;;;;;;6.10;3.50;;;11.20;66.50;;;;;;4961994;28;20505;-80
2021/04/23 09:15:44;;;;;;;6.67;3.87;;;11.10;67.00;;;;;;4951800;28;20580;-85
2021/04/23 09:18:16;;;;;;;6.00;3.90;;;10.80;67.40;;;;;;4951570;28;20611;-81
2021/04/23 09:20:48;;;;;;;8.43;3.77;;;10.30;68.60;;;;;;4954942;28;20214;-82
2021/04/23 09:23:18;;;;;;;4.17;2.93;;;10.00;67.40;;;;;;4932740;28;20543;-81
2021/04/23 09:25:49;;;;;;;6.77;3.53;;;9.70;67.00;;;;;;4952558;28;20212;-80
2021/04/23 09:28:33;;;;;;;7.50;3.20;;;9.50;67.80;;;;;;4946673;28;20274;-82
2021/04/23 09:31:23;;;;;;;7.53;3.47;;;9.40;69.50;;;;;;4950591;28;20220;-83
2021/04/23 09:33:51;;;;;;;4.93;2.97;;;9.10;72.00;;;;;;4953040;28;20224;-80
2021/04/23 09:36:31;;;;;;;5.93;3.20;;;8.90;70.90;;;;;;4955426;28;20540;-80
2021/04/23 09:39:10;;;;;;;6.97;3.27;;;8.60;71.70;;;;;;4951231;28;20383;-83
2021/04/23 09:41:39;;;;;;;6.90;3.30;;;8.50;72.10;;;;;;4959216;28;20212;-81
2021/04/23 09:44:25;;;;;;;4.70;3.20;;;8.20;72.40;;;;;;4959316;28;20207;-82
2021/04/23 09:47:10;;;;;;;8.30;3.90;;;8.20;72.70;;;;;;4962967;28;20223;-82
2021/04/23 09:49:39;;;;;;;6.27;3.53;;;8.40;73.20;;;;;;4952342;28;20205;-81
2021/04/23 09:52:11;;;;;;;5.30;2.13;;;8.80;72.90;;;;;;4954420;28;20504;-84
2021/04/23 09:54:39;;;;;;;4.07;2.50;;;9.10;68.70;;;;;;4961890;28;20213;-83
2021/04/23 09:57:16;;;;;;;6.57;2.60;;;9.40;68.70;;;;;;4967690;28;20542;-83
2021/04/23 09:59:53;;;;;;;4.67;2.70;;;9.70;69.00;;;;;;4959762;28;20204;-83
2021/04/23 10:02:23;;;;;;;5.90;3.40;;;10.00;68.60;;;;;;4950815;28;20457;-81
2021/04/23 10:04:52;;;;;;;7.37;3.83;;;9.90;68.20;;;;;;4957227;28;20236;-82
2021/04/23 10:07:23;;;;;;;5.67;2.90;;;9.70;68.40;;;;;;4950035;28;20217;-83
2021/04/23 10:10:02;;;;;;;4.80;3.40;;;9.60;68.50;;;;;;4951418;28;21109;-81
2021/04/23 10:12:39;;;;;;;4.73;3.37;;;9.70;68.70;;;;;;4953184;28;20571;-83
2021/04/23 10:15:13;;;;;;;4.30;3.30;;;9.80;68.90;;;;;;4955213;28;20333;-81
2021/04/23 10:17:42;;;;;;;5.70;2.70;;;9.90;68.80;;;;;;4965539;28;20225;-83
2021/04/23 10:20:12;;;;;;;5.67;2.60;;;10.10;66.40;;;;;;4956781;28;20300;-82
2021/04/23 10:22:41;;;;;;;3.93;2.10;;;10.20;64.80;;;;;;4967396;28;20271;-81
2021/04/23 10:25:10;;;;;;;4.53;2.30;;;10.20;65.10;;;;;;4964748;28;21037;-81
2021/04/23 10:27:41;;;;;;;3.27;2.33;;;10.40;65.00;;;;;;4956278;28;20718;-82
2021/04/23 10:30:12;;;;;;;2.87;2.33;;;10.80;64.70;;;;;;4954709;28;20716;-81
2021/04/23 10:33:03;;;;;;;4.67;2.50;;;11.10;63.20;;;;;;4962670;28;20744;-82
2021/04/23 10:35:31;;;;;;;4.70;2.80;;;11.30;62.90;;;;;;4950969;28;20562;-85
2021/04/23 10:38:05;;;;;;;3.27;2.13;;;11.30;63.00;;;;;;4955283;28;20236;-80
2021/04/23 10:40:33;;;;;;;3.63;1.83;;;11.20;62.10;;;;;;4955473;28;20773;-82
2021/04/23 10:43:04;;;;;;;6.23;2.10;;;10.30;67.40;;;;;;4960865;28;20216;-79
2021/04/23 10:45:39;;;;;;;3.13;1.80;;;8.70;72.20;;;;;;4951506;28;20223;-81
2021/04/23 10:48:31;;;;;;;3.90;1.93;;;7.50;77.60;;;;;;4947026;28;20583;-81
2021/04/23 10:51:01;;;;;;;4.67;2.00;;;6.80;81.30;;;;;;4930701;28;20248;-80
2021/04/23 10:53:43;;;;;;;4.47;2.17;;;6.30;83.90;;;;;;4945233;28;20526;-82
2021/04/23 10:56:22;;;;;;;2.47;2.20;;;6.20;85.80;;;;;;4953353;28;20215;-81
2021/04/23 10:58:50;;;;;;;2.27;2.07;;;6.00;86.00;;;;;;4940711;28;20228;-82
2021/04/23 11:01:30;;;;;;;2.47;2.27;;;5.80;86.60;;;;;;4928884;28;20548;-83
2021/04/23 11:04:14;;;;;;;1.77;1.67;;;5.60;86.60;;;;;;4952815;28;20558;-81
2021/04/23 11:06:44;;;;;;;2.83;2.50;;;5.40;88.50;;;;;;4968055;28;20216;-81
2021/04/23 11:09:18;;;;;;;3.80;3.40;;;5.30;88.40;;;;;;4946648;28;20401;-81
2021/04/23 11:12:14;;;;;;;4.20;2.93;;;5.10;89.50;;;;;;4944404;28;20503;-80
2021/04/23 11:14:44;;;;;;;5.60;3.80;;;5.10;90.10;;;;;;4948112;28;20232;-82
2021/04/23 11:17:34;;;;;;;6.67;3.47;;;5.00;90.70;;;;;;4950694;28;20205;-80
2021/04/23 11:20:23;;;;;;;5.07;3.97;;;5.20;91.60;;;;;;4938606;28;20216;-83
2021/04/23 11:22:56;;;;;;;6.87;3.53;;;5.40;90.70;;;;;;4958975;28;20603;-84
2021/04/23 11:25:25;;;;;;;6.13;4.07;;;5.50;90.30;;;;;;4962068;28;20336;-82
2021/04/23 11:28:13;;;;;;;4.93;3.87;;;5.70;90.90;;;;;;4958537;28;20239;-82
2021/04/23 11:31:04;;;;;;;4.27;3.23;;;6.00;90.80;;;;;;4956143;28;20228;-82
2021/04/23 11:33:49;;;;;;;5.97;3.87;;;6.10;89.50;;;;;;4961755;28;20235;-81
2021/04/23 11:36:30;;;;;;;6.27;3.80;;;6.20;88.40;;;;;;4963803;28;20200;-81
2021/04/23 11:39:00;;;;;;;5.90;3.80;;;6.00;88.40;;;;;;4951663;28;20591;-83
2021/04/23 11:41:30;;;;;;;5.43;3.50;;;6.10;88.50;;;;;;4957970;28;20220;-82
2021/04/23 11:43:57;;;;;;;3.53;2.73;;;6.10;89.00;;;;;;4958089;28;20566;-82
2021/04/23 11:46:47;;;;;;;4.07;3.60;;;6.00;88.30;;;;;;4959081;28;20209;-82
2021/04/23 11:49:15;;;;;;;7.07;3.50;;;6.00;90.00;;;;;;4950826;28;20214;-81
2021/04/23 11:51:52;;;;;;;4.87;3.80;;;5.90;89.30;;;;;;4943486;28;20204;-80
2021/04/23 11:54:30;;;;;;;5.33;3.63;;;5.80;90.10;;;;;;4952809;28;20232;-80
2021/04/23 11:57:00;;;;;;;5.40;3.57;;;6.00;90.90;;;;;;4960165;28;20216;-82
2021/04/23 11:59:29;;;;;;;5.10;3.80;;;6.30;91.20;;;;;;4951836;28;20229;-82
2021/04/23 12:01:57;;;;;;;5.17;3.80;;;6.60;90.80;;;;;;4953545;28;20206;-83
2021/04/23 12:04:53;;;;;;;6.93;4.20;;;7.00;90.40;;;;;;4982132;28;20864;-81
2021/04/23 12:07:24;;;;;;;3.87;3.30;;;7.30;88.20;;;;;;4967557;28;20246;-82
2021/04/23 12:10:06;;;;;;;5.60;3.77;;;7.60;87.90;;;;;;4958316;28;20521;-81
2021/04/23 12:12:36;;;;;;;4.27;3.00;;;7.60;86.10;;;;;;4964513;28;20215;-81
2021/04/23 12:15:06;;;;;;;3.97;3.57;;;7.60;85.70;;;;;;4971560;28;20507;-81
2021/04/23 12:17:40;;;;;;;4.03;3.30;;;7.60;85.60;;;;;;4953063;28;20222;-82
2021/04/23 12:20:19;;;;;;;4.20;3.80;;;7.60;85.60;;;;;;4954616;28;20221;-82
2021/04/23 12:22:48;;;;;;;4.30;3.30;;;7.50;86.20;;;;;;4954515;28;20208;-82
2021/04/23 12:25:21;;;;;;;3.43;3.13;;;7.60;86.70;;;;;;4959331;28;20586;-81
2021/04/23 12:27:52;;;;;;;4.20;3.73;;;7.60;86.00;;;;;;4953875;28;21006;-83
2021/04/23 12:30:32;;;;;;;5.77;3.53;;;7.70;86.80;;;;;;4953515;28;20204;-82
2021/04/23 12:33:01;;;;;;;4.07;3.23;;;8.00;86.50;;;;;;4953570;28;20228;-83
2021/04/23 12:35:34;;;;;;;3.20;2.90;;;8.20;85.70;;;;;;4953544;28;20201;-82
2021/04/23 12:38:02;;;;;;;4.13;2.83;;;8.40;85.40;;;;;;4954973;28;20205;-81
2021/04/23 12:40:31;;;;;;;3.00;2.70;;;8.60;83.00;;;;;;4951921;28;20710;-81
2021/04/23 12:43:00;;;;;;;3.63;3.10;;;8.60;83.50;;;;;;4967163;28;20227;-81
2021/04/23 12:45:30;;;;;;;3.67;2.80;;;8.70;84.20;;;;;;4980326;28;20252;-81
2021/04/23 12:47:58;;;;;;;4.73;2.90;;;8.60;83.60;;;;;;4969277;28;20211;-81
2021/04/23 12:50:30;;;;;;;3.03;2.70;;;8.70;83.10;;;;;;4969050;28;20211;-81
2021/04/23 12:52:58;;;;;;;3.03;2.80;;;8.90;82.50;;;;;;4957823;28;20202;-82
2021/04/23 12:55:26;;;;;;;5.73;2.67;;;8.90;82.40;;;;;;4959739;28;20311;-81
2021/04/23 12:57:56;;;;;;;3.07;2.70;;;8.90;81.70;;;;;;4958257;28;20483;-84
2021/04/23 13:00:29;;;;;;;3.50;2.80;;;8.80;82.00;;;;;;4955905;28;20570;-80
2021/04/23 13:02:59;;;;;;;2.90;2.60;;;9.10;82.00;;;;;;4965309;28;20205;-83
2021/04/23 13:05:27;;;;;;;3.00;2.50;;;9.50;81.80;;;;;;4958112;28;20200;-83
2021/04/23 13:07:57;;;;;;;3.60;2.77;;;9.50;80.30;;;;;;4959827;28;20214;-84
2021/04/23 13:10:31;;;;;;;4.63;2.97;;;9.50;80.70;;;;;;4962999;28;20221;-81
2021/04/23 13:13:03;;;;;;;3.40;2.83;;;9.60;80.90;;;;;;4965033;28;20259;-84
2021/04/23 13:15:33;;;;;;;3.93;3.10;;;9.60;80.90;;;;;;4962401;28;20267;-83
2021/04/23 13:18:12;;;;;;;3.70;2.90;;;9.80;80.40;;;;;;4953363;28;20212;-81
2021/04/23 13:20:49;;;;;;;4.50;2.70;;;9.80;80.50;;;;;;4961955;28;20209;-82
2021/04/23 13:23:17;;;;;;;4.40;2.77;;;9.90;80.60;;;;;;4968248;28;20205;-81